Adak, AK

9:49 AM HDT on May 25, 2017 (GMT -0900)
Adak

Weather History for PADK - November, 2013

Change the Weather History Date:

Saturday, November 30, 2013

  Actual Average Record
Temperature  
Mean Temperature 38 °F -  
Max Temperature 42 °F 40 °F 49 °F (1970)
Min Temperature 35 °F 31 °F 18 °F (1949)
Degree Days  
Heating Degree Days 26    
Moisture  
Dew Point 34 °F    
Average Humidity 78    
Maximum Humidity 87    
Minimum Humidity 55    
Precipitation  
Precipitation 0.02 in - - ()
Sea Level Pressure  
Sea Level Pressure 30.06 in    
Wind  
Wind Speed 17 mph (SE)    
Max Wind Speed 25 mph    
Max Gust Speed 37 mph    
Visibility 10 miles    
Events      
Averages and records for this station are not official NWS values.
T = Trace of Precipitation, MM = Missing Value Source: NWS Daily Summary

Daily Weather History Graph

Daily Weather History Graph

Search for Another Location

Airport or City:

Trip Planner

Search our weather history database for the weather conditions in past years. The results will help you decide how hot, cold, wet, or windy it might be!

Date:

Astronomy

Nov. 30, 2013 Rise Set
Actual Time 9:31 AM HST 5:39 PM HST
Civil Twilight 8:51 AM HST 6:19 PM HST
Nautical Twilight 8:08 AM HST 7:01 PM HST
Astronomical Twilight 7:28 AM HST 7:42 PM HST
Moon 6:43 AM HST (11/30) 4:27 PM HST (11/30)
Length of Visible Light 9h 27m
Length of Day
8h 08m
Waning Crescent, 6% of the Moon is Illuminated
Nov 30
Waning Crescent
Dec 2
New
Dec 9
First Quarter
Dec 16
Full
Dec 25
Last Quarter

Hourly Weather History & Observations

Time (HST) Temp. Windchill Dew Point Humidity Pressure Visibility Wind Dir Wind Speed Gust Speed Precip Events Conditions
12:16 AM 39.2 °F 31.2 °F 30.2 °F 70% 30.22 in 10.0 mi SSE 13.8 mph 18.4 mph N/A   Overcast
12:36 AM 39.2 °F 30.5 °F 30.2 °F 70% 30.21 in 10.0 mi SSE 16.1 mph - N/A   Overcast
12:56 AM 39.2 °F 30.5 °F 30.2 °F 70% 30.21 in 10.0 mi SSE 16.1 mph 24.2 mph N/A   Overcast
1:16 AM 39.2 °F 30.8 °F 30.2 °F 70% 30.20 in 10.0 mi SSE 15.0 mph - N/A   Overcast
1:36 AM 39.2 °F 30.5 °F 30.2 °F 70% 30.21 in 10.0 mi SSE 16.1 mph 21.9 mph N/A   Overcast
1:56 AM 39.2 °F 29.8 °F 28.4 °F 65% 30.21 in 10.0 mi SSE 18.4 mph 25.3 mph N/A   Overcast
2:16 AM 39.2 °F 32.0 °F 30.2 °F 70% 30.20 in 10.0 mi SSE 11.5 mph 17.3 mph N/A   Overcast
2:36 AM 39.2 °F 29.8 °F 32.0 °F 75% 30.20 in 10.0 mi SSE 18.4 mph 24.2 mph N/A   Overcast
2:56 AM 39.2 °F 31.2 °F 30.2 °F 70% 30.19 in 10.0 mi SSE 13.8 mph 19.6 mph N/A   Overcast
3:16 AM 39.2 °F 32.5 °F 30.2 °F 70% 30.18 in 10.0 mi ESE 10.4 mph - N/A   Overcast
3:36 AM 39.2 °F 30.8 °F 32.0 °F 75% 30.18 in 9.0 mi SE 15.0 mph 23.0 mph N/A   Overcast
3:56 AM 39.2 °F 30.5 °F 32.0 °F 75% 30.18 in 10.0 mi SE 16.1 mph - N/A   Overcast
4:16 AM 39.2 °F 31.2 °F 32.0 °F 75% 30.18 in 10.0 mi SE 13.8 mph 23.0 mph N/A   Overcast
4:36 AM 39.2 °F 31.2 °F 32.0 °F 75% 30.19 in 10.0 mi SE 13.8 mph - N/A   Overcast
4:56 AM 39.2 °F 30.5 °F 32.0 °F 75% 30.18 in 10.0 mi SE 16.1 mph 23.0 mph N/A   Overcast
5:16 AM 39.2 °F 31.6 °F 33.8 °F 81% 30.18 in 10.0 mi SE 12.7 mph - N/A   Overcast
5:36 AM 39.2 °F 31.6 °F 33.8 °F 81% 30.17 in 9.0 mi SE 12.7 mph 25.3 mph N/A   Overcast
5:56 AM 39.2 °F 32.0 °F 33.8 °F 81% 30.17 in 10.0 mi SE 11.5 mph 17.3 mph N/A   Overcast
6:16 AM 39.2 °F 31.2 °F 33.8 °F 81% 30.16 in 9.0 mi SSE 13.8 mph - N/A   Overcast
6:36 AM 39.2 °F 30.2 °F 33.8 °F 81% 30.16 in 9.0 mi SE 17.3 mph - N/A   Overcast
6:56 AM 39.2 °F 29.8 °F 33.8 °F 81% 30.16 in 9.0 mi SE 18.4 mph 25.3 mph N/A   Overcast
7:16 AM 39.2 °F 29.8 °F 33.8 °F 81% 30.15 in 10.0 mi SE 18.4 mph 26.5 mph N/A   Overcast
7:36 AM 39.2 °F 30.8 °F 33.8 °F 81% 30.15 in 9.0 mi SSE 15.0 mph 24.2 mph N/A   Overcast
7:56 AM 39.2 °F 29.6 °F 33.8 °F 81% 30.14 in 10.0 mi ESE 19.6 mph 26.5 mph N/A   Overcast
8:16 AM 39.2 °F 29.3 °F 33.8 °F 81% 30.14 in 10.0 mi SE 20.7 mph 28.8 mph N/A   Overcast
8:36 AM 39.2 °F 29.3 °F 33.8 °F 81% 30.14 in 10.0 mi SE 20.7 mph 25.3 mph N/A   Overcast
8:56 AM 39.2 °F 29.8 °F 33.8 °F 81% 30.14 in 10.0 mi SE 18.4 mph 25.3 mph N/A   Overcast
9:16 AM 39.2 °F 31.2 °F 33.8 °F 81% 30.13 in 10.0 mi ESE 13.8 mph 24.2 mph N/A   Overcast
9:36 AM 39.2 °F 29.3 °F 33.8 °F 81% 30.13 in 10.0 mi SE 20.7 mph 26.5 mph N/A   Overcast
9:56 AM 39.2 °F 30.2 °F 33.8 °F 81% 30.13 in 8.0 mi SE 17.3 mph 26.5 mph N/A   Overcast
10:16 AM 39.2 °F 29.3 °F 33.8 °F 81% 30.12 in 9.0 mi SE 20.7 mph 26.5 mph N/A   Overcast
10:36 AM 39.2 °F 28.3 °F 33.8 °F 81% 30.12 in 7.0 mi SE 25.3 mph 31.1 mph N/A   Overcast
10:56 AM 39.2 °F 29.0 °F 33.8 °F 81% 30.12 in 10.0 mi SE 21.9 mph 32.2 mph N/A   Overcast
11:16 AM 39.2 °F 29.3 °F 32.0 °F 75% 30.12 in 10.0 mi SE 20.7 mph 26.5 mph N/A   Overcast
11:36 AM 39.2 °F 30.2 °F 32.0 °F 75% 30.11 in 10.0 mi SE 17.3 mph 27.6 mph N/A   Overcast
11:56 AM 39.2 °F 28.7 °F 33.8 °F 81% 30.10 in 10.0 mi SE 23.0 mph 31.1 mph N/A   Overcast
12:16 PM 39.2 °F 28.5 °F 33.8 °F 81% 30.10 in 10.0 mi SE 24.2 mph 32.2 mph N/A   Overcast
12:36 PM 41.0 °F 32.5 °F 35.6 °F 81% 30.08 in 10.0 mi SE 17.3 mph 31.1 mph N/A   Overcast
12:56 PM 41.0 °F 31.6 °F 35.6 °F 81% 30.07 in 8.0 mi SE 20.7 mph 29.9 mph N/A   Overcast
1:16 PM 41.0 °F 32.5 °F 35.6 °F 81% 30.06 in 10.0 mi ESE 17.3 mph 27.6 mph N/A   Overcast
1:36 PM 41.0 °F 31.9 °F 35.6 °F 81% 30.04 in 10.0 mi SE 19.6 mph 31.1 mph N/A   Overcast
1:56 PM 41.0 °F 30.9 °F 33.8 °F 76% 30.03 in 10.0 mi SE 24.2 mph - N/A   Overcast
2:16 PM 41.0 °F 31.4 °F 35.6 °F 81% 30.02 in 10.0 mi SE 21.9 mph 29.9 mph N/A   Overcast
2:36 PM 41.0 °F 31.1 °F 35.6 °F 81% 30.01 in 9.0 mi SE 23.0 mph 29.9 mph N/A   Overcast
2:56 PM 41.0 °F 31.1 °F 35.6 °F 81% 30.00 in 9.0 mi SE 23.0 mph 31.1 mph N/A   Overcast
3:16 PM 41.0 °F 31.6 °F 35.6 °F 81% 29.99 in 9.0 mi ESE 20.7 mph 27.6 mph N/A   Overcast
3:36 PM 41.0 °F 32.5 °F 35.6 °F 81% 29.99 in 10.0 mi ESE 17.3 mph 28.8 mph N/A   Overcast
3:56 PM 41.0 °F 31.6 °F 35.6 °F 81% 29.98 in 10.0 mi SE 20.7 mph 25.3 mph N/A   Overcast
4:16 PM 41.0 °F 32.2 °F 35.6 °F 81% 29.98 in 10.0 mi SE 18.4 mph 33.4 mph N/A   Overcast
4:36 PM 42.8 °F 35.1 °F 35.6 °F 76% 29.98 in 9.0 mi SSE 16.1 mph 26.5 mph N/A   Overcast
4:56 PM 41.0 °F 32.8 °F 35.6 °F 81% 29.97 in 8.0 mi SE 16.1 mph 25.3 mph N/A   Overcast
5:16 PM 41.0 °F 31.9 °F 35.6 °F 81% 29.97 in 8.0 mi ESE 19.6 mph 28.8 mph N/A   Overcast
5:36 PM 41.0 °F 32.2 °F 35.6 °F 81% 29.96 in 10.0 mi SE 18.4 mph 26.5 mph N/A   Overcast
5:56 PM 41.0 °F 31.4 °F 35.6 °F 81% 29.96 in 10.0 mi SE 21.9 mph 29.9 mph N/A   Overcast
6:16 PM 41.0 °F 32.8 °F 35.6 °F 81% 29.94 in 10.0 mi SSE 16.1 mph 28.8 mph N/A   Overcast
6:36 PM 41.0 °F 31.9 °F 35.6 °F 81% 29.94 in 10.0 mi SE 19.6 mph 27.6 mph N/A   Overcast
6:56 PM 41.0 °F 31.6 °F 35.6 °F 81% 29.94 in 10.0 mi SE 20.7 mph 27.6 mph N/A   Overcast
7:16 PM 41.0 °F 31.4 °F 35.6 °F 81% 29.94 in 10.0 mi SE 21.9 mph 29.9 mph N/A   Overcast
7:36 PM 41.0 °F 31.1 °F 37.4 °F 87% 29.93 in 9.0 mi SE 23.0 mph 36.8 mph N/A   Overcast
7:56 PM 41.0 °F 31.4 °F 37.4 °F 87% 29.93 in 9.0 mi SE 21.9 mph 29.9 mph N/A   Overcast
8:16 PM 42.8 °F 33.8 °F 37.4 °F 81% 29.93 in 10.0 mi SE 21.9 mph 34.5 mph N/A   Overcast
8:36 PM 42.8 °F 33.8 °F 37.4 °F 81% 29.92 in 8.0 mi SE 21.9 mph 31.1 mph N/A   Overcast
8:56 PM 42.8 °F 33.3 °F 37.4 °F 81% 29.91 in 10.0 mi SE 24.2 mph - N/A   Overcast
9:16 PM 42.8 °F 33.5 °F 37.4 °F 81% 29.91 in 10.0 mi SE 23.0 mph 29.9 mph N/A   Overcast
9:36 PM 42.8 °F 33.8 °F 37.4 °F 81% 29.90 in 9.0 mi ESE 21.9 mph 34.5 mph N/A   Overcast
9:56 PM 42.8 °F 34.5 °F 37.4 °F 81% 29.89 in 9.0 mi ESE 18.4 mph 29.9 mph N/A   Overcast
10:16 PM 42.8 °F 34.3 °F 37.4 °F 81% 29.89 in 8.0 mi ESE 19.6 mph 27.6 mph N/A   Mostly Cloudy
10:36 PM 42.8 °F 35.1 °F 37.4 °F 81% 29.88 in 8.0 mi ESE 16.1 mph 29.9 mph N/A   Overcast
10:56 PM 42.8 °F 34.5 °F 37.4 °F 81% 29.87 in 8.0 mi ESE 18.4 mph 24.2 mph 0.01 in   Overcast
11:16 PM 42.8 °F 34.5 °F 37.4 °F 81% 29.87 in 8.0 mi ESE 18.4 mph 23.0 mph N/A   Overcast
11:36 PM 42.8 °F 34.3 °F 37.4 °F 81% 29.86 in 8.0 mi ESE 19.6 mph - N/A   Overcast
11:56 PM 42.8 °F 34.5 °F 37.4 °F 81% 29.86 in 8.0 mi SE 18.4 mph 24.2 mph N/A   Overcast